Time;durP1;ratioP1;P1;durP2;ratioP2;P2;SDS_P1;SDS_P2;PMS_P1;PMS_P2;Temp;Humidity;BMP_temperature;BMP_pressure;BME280_temperature;BME280_humidity;BME280_pressure;Samples;Min_cycle;Max_cycle;Signal;HPM_P1;HPM_P2
2023/09/13 00:00:17;;;;;;;3.27;1.70;;;16.80;99.90;;;;;;5032291;28;20659;-68
2023/09/13 00:02:43;;;;;;;6.23;1.50;;;16.70;99.90;;;;;;5032153;28;20203;-69
2023/09/13 00:05:09;;;;;;;6.07;1.83;;;16.80;99.90;;;;;;5032234;28;20203;-68
2023/09/13 00:07:38;;;;;;;3.03;1.60;;;16.90;99.90;;;;;;5031601;28;20655;-68
2023/09/13 00:10:04;;;;;;;6.87;1.80;;;16.90;99.90;;;;;;5032143;28;20278;-68
2023/09/13 00:12:29;;;;;;;4.00;1.60;;;17.00;99.90;;;;;;5023803;28;20215;-68
2023/09/13 00:14:55;;;;;;;6.10;2.03;;;17.00;99.90;;;;;;5028395;28;20459;-69
2023/09/13 00:17:22;;;;;;;3.37;1.90;;;17.10;99.90;;;;;;5019929;28;20231;-69
2023/09/13 00:19:48;;;;;;;3.87;1.70;;;17.10;99.90;;;;;;5030468;28;20191;-69
2023/09/13 00:22:13;;;;;;;4.33;2.10;;;17.10;99.90;;;;;;5032062;28;20188;-68
2023/09/13 00:24:39;;;;;;;5.00;1.90;;;17.10;99.90;;;;;;5031569;28;20208;-69
2023/09/13 00:27:05;;;;;;;5.07;1.73;;;17.20;99.90;;;;;;5031708;28;20192;-68
2023/09/13 00:29:33;;;;;;;5.07;2.40;;;17.20;99.90;;;;;;5030687;28;20249;-68
2023/09/13 00:32:00;;;;;;;6.43;2.07;;;17.20;99.90;;;;;;5031843;28;20247;-69
2023/09/13 00:34:26;;;;;;;3.30;1.50;;;17.30;99.90;;;;;;5031589;28;20625;-69
2023/09/13 00:36:51;;;;;;;10.77;2.60;;;17.30;99.90;;;;;;5031606;28;20279;-69
2023/09/13 00:39:17;;;;;;;6.87;2.90;;;17.40;99.90;;;;;;5030678;28;20562;-68
2023/09/13 00:41:43;;;;;;;5.57;2.33;;;17.40;99.90;;;;;;5031375;28;20587;-68
2023/09/13 00:44:08;;;;;;;7.50;3.30;;;17.40;99.90;;;;;;5031310;28;20214;-68
2023/09/13 00:46:34;;;;;;;6.17;1.80;;;17.40;99.90;;;;;;5030940;28;20199;-69
2023/09/13 00:49:00;;;;;;;4.27;2.10;;;17.40;99.90;;;;;;5030737;28;20286;-69
2023/09/13 00:51:27;;;;;;;5.53;2.03;;;17.30;99.90;;;;;;5031412;28;20225;-69
2023/09/13 00:53:53;;;;;;;4.50;2.10;;;17.40;99.90;;;;;;5031139;28;20678;-69
2023/09/13 00:56:19;;;;;;;5.80;2.30;;;17.40;99.90;;;;;;5030574;28;20653;-68
2023/09/13 00:58:47;;;;;;;8.50;2.20;;;17.40;99.90;;;;;;5030148;28;20233;-68
2023/09/13 01:01:13;;;;;;;3.40;1.93;;;17.40;99.90;;;;;;5031313;28;20192;-67
2023/09/13 01:03:40;;;;;;;6.50;2.07;;;17.40;99.90;;;;;;5030825;28;20198;-67
2023/09/13 01:06:06;;;;;;;5.37;2.03;;;17.40;99.90;;;;;;5031181;28;20283;-67
2023/09/13 01:08:32;;;;;;;5.23;1.90;;;17.40;99.90;;;;;;5029973;28;20191;-67
2023/09/13 01:10:58;;;;;;;4.23;2.40;;;17.40;99.90;;;;;;5031051;28;20199;-67
2023/09/13 01:13:23;;;;;;;5.37;2.03;;;17.40;99.90;;;;;;5030647;28;20206;-65
2023/09/13 01:15:58;;;;;;;6.20;2.80;;;17.40;99.90;;;;;;5030578;28;20649;-65
2023/09/13 01:18:32;;;;;;;5.60;3.10;;;17.40;99.90;;;;;;5022701;28;20323;-66
2023/09/13 01:21:06;;;;;;;6.50;3.10;;;17.40;99.90;;;;;;5015753;28;20203;-66
2023/09/13 01:24:07;;;;;;;6.07;3.47;;;17.40;99.90;;;;;;5022362;28;20179;-67
2023/09/13 01:27:00;;;;;;;9.53;3.80;;;17.50;99.90;;;;;;5022200;28;20600;-67
2023/09/13 01:29:27;;;;;;;6.70;3.70;;;17.50;99.90;;;;;;5029990;28;20639;-67
2023/09/13 01:31:53;;;;;;;7.87;3.60;;;17.50;99.90;;;;;;5030669;28;20208;-67
2023/09/13 01:34:19;;;;;;;10.30;3.80;;;17.40;99.90;;;;;;5030539;28;20203;-67
2023/09/13 01:36:44;;;;;;;7.33;3.20;;;17.50;99.90;;;;;;5030152;28;20249;-67
2023/09/13 01:39:10;;;;;;;4.33;2.90;;;17.50;99.90;;;;;;5029807;28;20180;-67
2023/09/13 01:41:51;;;;;;;7.00;3.77;;;17.50;99.90;;;;;;5022227;28;20675;-67
2023/09/13 01:44:17;;;;;;;6.10;3.30;;;17.50;99.90;;;;;;5030425;28;20239;-67
2023/09/13 01:46:44;;;;;;;13.33;5.50;;;17.50;99.90;;;;;;5021802;28;20294;-68
2023/09/13 01:49:12;;;;;;;15.67;7.33;;;17.50;99.90;;;;;;5029661;28;20689;-68
2023/09/13 01:51:38;;;;;;;9.77;6.33;;;17.40;99.90;;;;;;5022036;28;20204;-68
2023/09/13 01:54:04;;;;;;;12.00;7.90;;;17.50;99.90;;;;;;5030203;28;20203;-68
2023/09/13 01:56:29;;;;;;;18.47;8.77;;;17.50;99.90;;;;;;5029993;28;20186;-68
2023/09/13 01:58:55;;;;;;;22.17;9.90;;;17.50;99.90;;;;;;5013849;28;20293;-67
2023/09/13 02:01:21;;;;;;;12.93;8.63;;;17.60;99.90;;;;;;5022204;28;20545;-68
2023/09/13 02:03:46;;;;;;;14.87;9.13;;;17.50;99.90;;;;;;5029832;28;20243;-68
2023/09/13 02:06:12;;;;;;;16.03;9.83;;;17.50;99.90;;;;;;5030336;28;20184;-67
2023/09/13 02:08:39;;;;;;;16.23;9.93;;;17.50;99.90;;;;;;5029176;28;20192;-67
2023/09/13 02:11:08;;;;;;;17.63;10.17;;;17.50;99.90;;;;;;5029978;28;20250;-68
2023/09/13 02:13:34;;;;;;;17.90;11.60;;;17.50;99.90;;;;;;5029871;28;20265;-68
2023/09/13 02:16:00;;;;;;;17.30;11.27;;;17.50;99.90;;;;;;5030286;28;20180;-68
2023/09/13 02:18:25;;;;;;;19.40;11.93;;;17.40;99.90;;;;;;5029048;28;20552;-67
2023/09/13 02:20:51;;;;;;;17.53;12.47;;;17.40;99.90;;;;;;5030011;28;20172;-67
2023/09/13 02:23:17;;;;;;;17.20;11.27;;;17.30;99.90;;;;;;5029989;28;20222;-68
2023/09/13 02:25:45;;;;;;;21.00;11.20;;;17.40;99.90;;;;;;5021570;28;20212;-67
2023/09/13 02:28:12;;;;;;;20.20;11.70;;;17.40;99.90;;;;;;5029037;28;20278;-68
2023/09/13 02:30:38;;;;;;;15.93;10.87;;;17.40;99.90;;;;;;5029727;28;20196;-68
2023/09/13 02:33:04;;;;;;;17.57;10.60;;;17.30;99.90;;;;;;5029939;28;21003;-68
2023/09/13 02:35:31;;;;;;;14.97;10.47;;;17.30;99.90;;;;;;5029716;28;20207;-68
2023/09/13 02:37:57;;;;;;;15.90;10.90;;;17.30;99.90;;;;;;5029031;28;20223;-68
2023/09/13 02:40:23;;;;;;;19.53;11.27;;;17.30;99.90;;;;;;5029914;28;20184;-68
2023/09/13 02:42:49;;;;;;;15.70;11.07;;;17.30;99.90;;;;;;5029610;28;20183;-67
2023/09/13 02:45:15;;;;;;;15.63;10.67;;;17.30;99.90;;;;;;5029711;28;20207;-68
2023/09/13 02:47:40;;;;;;;20.97;12.83;;;17.30;99.90;;;;;;5028603;28;20243;-68
2023/09/13 02:50:06;;;;;;;18.20;11.87;;;17.30;99.90;;;;;;5029702;28;20223;-68
2023/09/13 02:52:33;;;;;;;18.63;12.73;;;17.30;99.90;;;;;;5029566;28;20207;-68
2023/09/13 02:55:00;;;;;;;19.73;11.83;;;17.30;99.90;;;;;;5029578;28;20249;-68
2023/09/13 02:57:25;;;;;;;19.93;12.47;;;17.20;99.90;;;;;;5029023;28;20191;-68
2023/09/13 02:59:52;;;;;;;18.40;12.23;;;17.20;99.90;;;;;;5029127;28;20191;-67
2023/09/13 03:02:18;;;;;;;17.07;11.67;;;17.20;99.90;;;;;;5036872;28;20184;-67
2023/09/13 03:04:44;;;;;;;14.97;10.57;;;17.30;99.90;;;;;;5028380;28;20206;-68
2023/09/13 03:07:09;;;;;;;22.20;11.97;;;17.30;99.90;;;;;;5029506;28;20559;-68
2023/09/13 03:09:35;;;;;;;17.70;11.80;;;17.30;99.90;;;;;;5028594;28;20666;-68
2023/09/13 03:12:01;;;;;;;17.67;12.37;;;17.40;99.90;;;;;;5029512;28;20207;-68
2023/09/13 03:14:30;;;;;;;17.53;11.23;;;17.40;99.90;;;;;;5029448;28;20210;-68
2023/09/13 03:16:55;;;;;;;18.53;12.33;;;17.50;99.90;;;;;;5029457;28;20180;-68
2023/09/13 03:19:21;;;;;;;18.67;12.67;;;17.50;99.90;;;;;;5029765;28;20184;-68
2023/09/13 03:21:47;;;;;;;23.43;12.03;;;17.50;99.90;;;;;;5032998;28;20713;-68
2023/09/13 03:24:12;;;;;;;27.07;14.87;;;17.50;99.90;;;;;;5032945;28;20208;-68
2023/09/13 03:26:38;;;;;;;21.80;12.80;;;17.50;99.90;;;;;;5032568;28;20704;-67
2023/09/13 03:29:04;;;;;;;20.40;13.13;;;17.50;99.90;;;;;;5032203;28;20191;-68
2023/09/13 03:31:32;;;;;;;25.77;13.40;;;17.50;99.90;;;;;;5033161;28;20211;-67
2023/09/13 03:33:58;;;;;;;24.23;13.97;;;17.60;99.90;;;;;;5016926;28;20222;-69
2023/09/13 03:36:27;;;;;;;24.90;14.83;;;17.60;99.90;;;;;;5032797;28;20187;-69
2023/09/13 03:38:53;;;;;;;28.57;14.97;;;17.60;99.90;;;;;;5028735;28;20184;-69
2023/09/13 03:41:20;;;;;;;27.93;15.53;;;17.60;99.90;;;;;;5019570;28;20301;-68
2023/09/13 03:43:46;;;;;;;23.73;14.33;;;17.60;99.90;;;;;;5032064;28;20215;-69
2023/09/13 03:46:12;;;;;;;28.73;15.20;;;17.70;99.90;;;;;;5047970;28;20199;-69
2023/09/13 03:48:39;;;;;;;25.87;15.77;;;17.70;99.90;;;;;;5022296;28;20191;-68
2023/09/13 03:51:05;;;;;;;24.03;15.40;;;17.70;99.90;;;;;;5024454;28;20188;-68
2023/09/13 03:53:31;;;;;;;25.37;15.80;;;17.70;99.90;;;;;;5032162;28;20191;-68
2023/09/13 03:55:57;;;;;;;30.63;15.90;;;17.70;99.90;;;;;;5032420;28;20180;-67
2023/09/13 03:58:23;;;;;;;28.03;16.27;;;17.70;99.90;;;;;;5046927;28;20188;-69
2023/09/13 04:00:48;;;;;;;32.23;16.60;;;17.70;99.90;;;;;;5032231;28;20214;-68
2023/09/13 04:03:15;;;;;;;31.00;17.67;;;17.70;99.90;;;;;;5032100;28;20564;-68
2023/09/13 04:05:41;;;;;;;35.60;17.93;;;17.70;99.90;;;;;;5032030;28;20244;-69
2023/09/13 04:08:07;;;;;;;28.37;15.73;;;17.80;99.90;;;;;;5031495;28;20219;-69
2023/09/13 04:10:32;;;;;;;28.20;15.63;;;17.70;99.90;;;;;;5023964;28;20200;-69
2023/09/13 04:12:58;;;;;;;31.43;16.50;;;17.80;99.90;;;;;;5030839;28;20211;-68
2023/09/13 04:15:23;;;;;;;30.70;17.30;;;17.70;99.90;;;;;;5031888;28;20212;-68
2023/09/13 04:17:49;;;;;;;29.97;16.47;;;17.80;99.90;;;;;;5031356;28;20266;-69
2023/09/13 04:20:15;;;;;;;27.47;16.73;;;17.80;99.90;;;;;;5032026;28;20275;-69
2023/09/13 04:22:41;;;;;;;29.07;16.37;;;17.80;99.90;;;;;;5023381;28;20278;-68
2023/09/13 04:25:07;;;;;;;17.93;10.67;;;17.80;99.90;;;;;;5031841;28;20211;-68
2023/09/13 04:27:32;;;;;;;23.20;12.10;;;17.80;99.90;;;;;;5030897;28;20266;-68
2023/09/13 04:29:58;;;;;;;20.10;11.43;;;17.80;99.90;;;;;;5023315;28;20275;-68
2023/09/13 04:32:24;;;;;;;18.47;11.33;;;17.80;99.90;;;;;;5030918;28;20253;-68
2023/09/13 04:34:50;;;;;;;20.30;10.73;;;17.80;99.90;;;;;;5031212;28;20208;-68
2023/09/13 04:37:16;;;;;;;18.57;11.30;;;17.80;99.90;;;;;;5031681;28;20671;-68
2023/09/13 04:39:42;;;;;;;23.83;10.97;;;17.80;99.90;;;;;;5022626;28;20191;-68
2023/09/13 04:42:07;;;;;;;17.77;10.73;;;17.80;99.90;;;;;;5023223;28;20195;-68
2023/09/13 04:44:33;;;;;;;20.40;11.27;;;17.80;99.90;;;;;;5031490;28;20230;-68
2023/09/13 04:47:01;;;;;;;17.97;10.43;;;17.80;99.90;;;;;;5031276;28;20207;-68
2023/09/13 04:49:27;;;;;;;17.40;9.27;;;17.80;99.90;;;;;;5030279;28;20269;-68
2023/09/13 04:51:54;;;;;;;22.13;11.10;;;17.80;99.90;;;;;;5022806;28;20272;-69
2023/09/13 04:54:22;;;;;;;21.30;11.50;;;17.80;99.90;;;;;;5023097;28;20206;-68
2023/09/13 04:56:50;;;;;;;23.37;12.90;;;17.80;99.90;;;;;;5012201;28;20348;-68
2023/09/13 04:59:16;;;;;;;25.40;12.17;;;17.80;99.90;;;;;;5016913;28;20180;-69
2023/09/13 05:01:42;;;;;;;23.80;12.57;;;17.80;99.90;;;;;;5036490;28;20185;-68
2023/09/13 05:04:08;;;;;;;21.60;12.37;;;17.80;99.90;;;;;;5019731;28;20219;-68
2023/09/13 05:06:33;;;;;;;35.20;15.57;;;17.80;99.90;;;;;;5011567;28;20600;-68
2023/09/13 05:08:59;;;;;;;36.90;16.80;;;17.80;99.90;;;;;;5017539;28;20176;-68
2023/09/13 05:11:25;;;;;;;40.83;19.10;;;17.80;99.90;;;;;;5019088;28;20748;-69
2023/09/13 05:13:51;;;;;;;43.00;20.80;;;17.80;99.90;;;;;;5029699;28;20196;-68
2023/09/13 05:16:19;;;;;;;43.90;19.57;;;17.80;99.90;;;;;;5031042;28;20237;-68
2023/09/13 05:18:46;;;;;;;44.23;22.70;;;17.80;99.90;;;;;;5011821;28;20184;-68
2023/09/13 05:21:11;;;;;;;48.67;22.30;;;17.80;99.90;;;;;;5016570;28;20180;-68
2023/09/13 05:23:37;;;;;;;44.50;22.33;;;17.80;99.90;;;;;;5014337;28;20193;-68
2023/09/13 05:26:03;;;;;;;50.23;24.27;;;17.80;99.90;;;;;;5025481;28;20561;-68
2023/09/13 05:28:33;;;;;;;49.87;25.03;;;17.80;99.90;;;;;;5010026;28;20655;-67
2023/09/13 05:31:00;;;;;;;49.57;25.27;;;17.80;99.90;;;;;;5002506;28;20203;-68
2023/09/13 05:33:26;;;;;;;52.07;25.77;;;17.80;99.90;;;;;;5010275;28;20215;-68
2023/09/13 05:35:52;;;;;;;52.30;26.20;;;17.90;99.90;;;;;;5010431;28;20235;-68
2023/09/13 05:38:17;;;;;;;55.77;26.30;;;17.90;99.90;;;;;;5015367;28;20179;-68
2023/09/13 05:40:43;;;;;;;58.60;26.23;;;17.90;99.90;;;;;;5020188;28;20189;-69
2023/09/13 05:43:09;;;;;;;63.03;29.77;;;17.90;99.90;;;;;;5009649;28;20597;-68
2023/09/13 05:45:34;;;;;;;65.23;31.03;;;17.90;99.90;;;;;;5018196;28;20211;-68
2023/09/13 05:48:00;;;;;;;65.47;30.70;;;17.90;99.90;;;;;;5020564;28;20192;-68
2023/09/13 05:50:28;;;;;;;64.27;31.07;;;17.90;99.90;;;;;;5021290;28;20194;-68
2023/09/13 05:52:55;;;;;;;79.77;33.33;;;17.90;99.90;;;;;;5026680;28;20200;-68
2023/09/13 05:55:20;;;;;;;73.27;33.50;;;18.00;99.90;;;;;;5018283;28;20353;-68
2023/09/13 05:57:46;;;;;;;71.00;33.30;;;18.00;99.90;;;;;;5025376;28;20258;-68
2023/09/13 06:00:13;;;;;;;74.97;34.20;;;18.00;99.90;;;;;;5023387;28;20222;-68
2023/09/13 06:02:39;;;;;;;72.50;34.20;;;18.00;99.90;;;;;;5028589;28;20233;-68
2023/09/13 06:05:05;;;;;;;72.87;34.77;;;18.10;99.90;;;;;;5022045;28;20298;-68
2023/09/13 06:07:31;;;;;;;69.93;33.07;;;18.00;99.90;;;;;;5029229;28;20635;-68
2023/09/13 06:09:58;;;;;;;76.70;33.30;;;18.00;99.90;;;;;;5025752;28;20179;-68
2023/09/13 06:12:24;;;;;;;73.50;33.40;;;18.10;99.90;;;;;;5016549;28;20329;-68
2023/09/13 06:14:53;;;;;;;76.60;34.33;;;18.10;99.90;;;;;;5012908;28;20287;-68
2023/09/13 06:17:19;;;;;;;68.57;31.87;;;18.20;99.90;;;;;;5023102;28;20180;-68
2023/09/13 06:19:44;;;;;;;69.40;31.97;;;18.20;99.90;;;;;;5012929;28;20238;-68
2023/09/13 06:22:10;;;;;;;69.80;32.33;;;18.30;99.90;;;;;;5023025;28;20191;-68
2023/09/13 06:24:35;;;;;;;76.23;34.30;;;18.30;99.90;;;;;;5020741;28;20215;-69
2023/09/13 06:27:01;;;;;;;71.13;33.60;;;18.40;99.90;;;;;;5029532;28;20266;-68
2023/09/13 06:29:26;;;;;;;69.00;31.30;;;18.50;99.90;;;;;;5028511;28;20655;-68
2023/09/13 06:31:54;;;;;;;66.10;31.60;;;18.50;99.90;;;;;;5018490;28;20222;-69
2023/09/13 06:34:20;;;;;;;61.93;30.30;;;18.50;99.90;;;;;;5010056;28;20514;-68
2023/09/13 06:36:48;;;;;;;73.87;31.83;;;18.50;99.90;;;;;;5011219;28;20188;-68
2023/09/13 06:39:14;;;;;;;65.57;32.30;;;18.50;99.90;;;;;;5014772;28;20184;-69
2023/09/13 06:41:39;;;;;;;70.97;31.00;;;18.50;99.90;;;;;;5018489;28;20179;-68
2023/09/13 06:44:09;;;;;;;71.87;32.13;;;18.60;99.90;;;;;;5021106;28;20199;-69
2023/09/13 06:46:38;;;;;;;62.50;29.90;;;18.60;99.90;;;;;;5020663;28;20587;-68
2023/09/13 06:49:04;;;;;;;65.27;30.33;;;18.70;99.90;;;;;;5008659;28;20192;-68
2023/09/13 06:51:30;;;;;;;63.80;30.43;;;18.80;99.90;;;;;;5017515;28;20212;-69
2023/09/13 06:53:55;;;;;;;59.00;29.83;;;19.00;99.90;;;;;;5020839;28;20271;-68
2023/09/13 06:56:21;;;;;;;56.90;28.40;;;19.10;99.90;;;;;;5018362;28;20180;-68
2023/09/13 06:58:47;;;;;;;59.13;27.90;;;19.20;99.90;;;;;;5022161;28;20630;-68
2023/09/13 07:01:13;;;;;;;59.87;28.77;;;19.40;99.90;;;;;;5027396;28;20199;-68
2023/09/13 07:03:39;;;;;;;52.97;27.47;;;19.50;99.90;;;;;;5029109;28;20271;-67
2023/09/13 07:06:05;;;;;;;55.43;27.77;;;19.60;99.90;;;;;;5013132;28;20272;-68
2023/09/13 07:08:30;;;;;;;52.90;27.27;;;19.60;99.90;;;;;;5020192;28;20585;-68
2023/09/13 07:10:56;;;;;;;58.20;28.33;;;19.60;99.90;;;;;;5032335;28;20662;-68
2023/09/13 07:13:21;;;;;;;47.20;25.93;;;19.50;99.90;;;;;;5032537;28;20711;-68
2023/09/13 07:15:48;;;;;;;48.17;25.27;;;19.40;99.90;;;;;;5030621;28;20574;-69
2023/09/13 07:18:14;;;;;;;45.70;24.90;;;19.30;99.90;;;;;;5019781;28;20191;-69
2023/09/13 07:20:40;;;;;;;40.67;23.07;;;19.30;99.90;;;;;;5029334;28;20187;-68
2023/09/13 07:23:05;;;;;;;39.10;22.27;;;19.40;99.90;;;;;;5025167;28;20203;-68
2023/09/13 07:25:31;;;;;;;43.60;22.27;;;19.30;99.90;;;;;;5032411;28;20639;-67
2023/09/13 07:27:57;;;;;;;39.10;20.43;;;19.20;99.90;;;;;;5031942;28;20187;-66
2023/09/13 07:30:23;;;;;;;38.13;20.97;;;19.10;99.90;;;;;;5022939;28;20242;-67
2023/09/13 07:32:49;;;;;;;38.23;21.30;;;19.00;99.90;;;;;;5024074;28;20526;-67
2023/09/13 07:35:15;;;;;;;41.83;21.67;;;19.00;99.90;;;;;;5018476;28;20204;-67
2023/09/13 07:37:40;;;;;;;40.10;21.47;;;19.00;99.90;;;;;;5020132;28;20294;-67
2023/09/13 07:40:07;;;;;;;39.00;20.43;;;19.00;99.90;;;;;;5025063;28;20245;-66
2023/09/13 07:42:32;;;;;;;36.43;20.50;;;19.00;99.90;;;;;;5024016;28;20708;-67
2023/09/13 07:44:58;;;;;;;31.77;17.37;;;19.00;99.90;;;;;;5023878;28;20216;-67
2023/09/13 07:47:27;;;;;;;36.33;19.87;;;19.00;99.90;;;;;;5024693;28;20204;-67
2023/09/13 07:49:52;;;;;;;40.57;22.07;;;19.00;99.90;;;;;;5014260;28;20296;-68
2023/09/13 07:52:18;;;;;;;42.30;23.73;;;19.10;99.90;;;;;;5024036;28;20608;-67
2023/09/13 07:54:43;;;;;;;45.57;24.40;;;19.10;99.90;;;;;;5015495;28;20583;-68
2023/09/13 07:57:09;;;;;;;46.40;26.87;;;19.20;99.90;;;;;;5031446;28;20218;-69
2023/09/13 07:59:34;;;;;;;54.93;28.07;;;19.20;99.90;;;;;;5030876;28;20188;-68
2023/09/13 08:02:00;;;;;;;48.57;27.37;;;19.20;99.90;;;;;;5023722;28;20210;-68
2023/09/13 08:04:25;;;;;;;47.30;25.37;;;19.20;99.90;;;;;;5016601;28;20694;-68
2023/09/13 08:06:51;;;;;;;47.83;26.53;;;19.20;99.90;;;;;;5030574;28;20199;-68
2023/09/13 08:09:17;;;;;;;51.50;25.73;;;19.10;99.90;;;;;;5022460;28;20570;-68
2023/09/13 08:11:45;;;;;;;49.30;27.10;;;19.10;99.90;;;;;;5023279;28;20265;-68
2023/09/13 08:14:10;;;;;;;47.57;27.17;;;19.00;99.90;;;;;;5046836;28;20224;-68
2023/09/13 08:16:36;;;;;;;52.33;27.00;;;18.90;99.90;;;;;;5023283;28;20184;-67
2023/09/13 08:19:02;;;;;;;50.93;27.00;;;18.90;99.90;;;;;;5022264;28;20253;-68
2023/09/13 08:21:27;;;;;;;48.27;26.97;;;19.00;99.90;;;;;;5031542;28;20188;-68
2023/09/13 08:23:53;;;;;;;44.10;26.13;;;19.00;99.90;;;;;;5014913;28;20244;-68
2023/09/13 08:26:19;;;;;;;47.27;27.17;;;19.00;99.90;;;;;;5031366;28;20196;-68
2023/09/13 08:28:45;;;;;;;45.47;25.27;;;19.00;99.90;;;;;;5020378;28;20188;-68
2023/09/13 08:31:11;;;;;;;48.63;26.87;;;19.00;99.90;;;;;;5020207;28;20199;-68
2023/09/13 08:33:36;;;;;;;43.83;25.40;;;19.10;99.90;;;;;;5019210;28;20184;-68
2023/09/13 08:36:02;;;;;;;42.23;24.13;;;19.20;99.90;;;;;;5011805;28;20281;-68
2023/09/13 08:38:28;;;;;;;42.80;24.13;;;19.30;99.90;;;;;;5017959;28;20947;-68
2023/09/13 08:40:54;;;;;;;38.93;23.57;;;19.40;99.90;;;;;;5020395;28;20184;-68
2023/09/13 08:43:21;;;;;;;39.67;23.90;;;19.40;99.90;;;;;;5017369;28;20183;-68
2023/09/13 08:45:48;;;;;;;36.73;21.80;;;19.50;99.90;;;;;;5020984;28;20231;-69
2023/09/13 08:48:16;;;;;;;37.40;22.23;;;19.60;99.90;;;;;;5018683;28;20200;-68
2023/09/13 08:50:42;;;;;;;38.43;22.67;;;19.70;99.90;;;;;;5020261;28;20192;-69
2023/09/13 08:53:10;;;;;;;37.40;21.63;;;19.80;99.90;;;;;;5018271;28;20706;-69
2023/09/13 08:55:38;;;;;;;44.13;21.67;;;19.90;99.90;;;;;;5027394;28;20246;-69
2023/09/13 08:58:04;;;;;;;35.63;21.27;;;19.90;99.90;;;;;;5018015;28;20188;-69
2023/09/13 09:00:34;;;;;;;33.27;20.10;;;20.20;99.90;;;;;;5010815;28;20627;-69
2023/09/13 09:03:04;;;;;;;35.63;20.10;;;20.70;99.90;;;;;;5030468;28;20730;-69
2023/09/13 09:05:31;;;;;;;31.97;18.00;;;21.00;99.90;;;;;;5022403;28;20207;-69
2023/09/13 09:07:58;;;;;;;33.70;18.97;;;21.30;99.90;;;;;;5010587;28;20618;-68
2023/09/13 09:10:24;;;;;;;28.77;18.10;;;21.50;99.90;;;;;;5018774;28;20604;-70
2023/09/13 09:12:52;;;;;;;31.37;18.43;;;21.50;99.90;;;;;;5020448;28;20239;-69
2023/09/13 09:15:19;;;;;;;31.83;17.80;;;21.60;99.90;;;;;;5030320;28;20200;-67
2023/09/13 09:17:50;;;;;;;27.10;17.93;;;21.50;99.90;;;;;;5028872;28;20183;-68
2023/09/13 09:20:18;;;;;;;29.80;18.13;;;21.10;99.90;;;;;;5030261;28;20257;-69
2023/09/13 09:22:43;;;;;;;30.87;17.90;;;21.10;99.90;;;;;;5029868;28;20191;-68
2023/09/13 09:25:11;;;;;;;24.73;16.60;;;21.10;99.90;;;;;;5030043;28;20948;-68
2023/09/13 09:27:38;;;;;;;30.07;15.37;;;21.20;99.90;;;;;;5029081;28;20294;-68
2023/09/13 09:30:07;;;;;;;25.03;15.37;;;21.40;99.90;;;;;;5030178;28;20199;-68
2023/09/13 09:32:36;;;;;;;25.37;15.00;;;21.30;99.90;;;;;;5029836;28;20242;-66
2023/09/13 09:35:04;;;;;;;27.77;15.37;;;20.90;99.90;;;;;;5029975;28;20188;-67
2023/09/13 09:37:32;;;;;;;26.03;15.37;;;20.60;99.90;;;;;;5029423;28;20334;-71
2023/09/13 09:39:58;;;;;;;26.40;15.03;;;20.30;99.90;;;;;;5029400;28;20267;-69
2023/09/13 09:42:24;;;;;;;25.53;14.60;;;20.20;99.90;;;;;;5044926;28;20215;-67
2023/09/13 09:44:51;;;;;;;26.30;15.17;;;20.20;99.90;;;;;;5029298;28;20310;-69
2023/09/13 09:47:17;;;;;;;27.40;15.13;;;20.30;99.90;;;;;;5029879;28;20598;-69
2023/09/13 09:49:47;;;;;;;22.40;13.60;;;20.50;99.90;;;;;;5020436;28;20202;-69
2023/09/13 09:52:17;;;;;;;24.57;14.23;;;20.40;99.90;;;;;;5024822;28;20212;-69
2023/09/13 09:54:50;;;;;;;24.90;12.77;;;20.50;99.90;;;;;;5018478;28;20211;-69
2023/09/13 09:57:22;;;;;;;21.33;12.27;;;20.60;99.90;;;;;;5024651;28;20185;-69
2023/09/13 09:59:49;;;;;;;22.87;12.97;;;20.60;99.90;;;;;;5027653;28;20188;-69
2023/09/13 10:02:15;;;;;;;22.00;12.40;;;20.60;99.90;;;;;;5029858;28;20179;-70
2023/09/13 10:04:49;;;;;;;18.83;11.57;;;20.50;99.90;;;;;;5029092;28;20723;-70
2023/09/13 10:07:14;;;;;;;20.63;11.97;;;20.50;99.90;;;;;;5029560;28;20188;-70
2023/09/13 10:09:41;;;;;;;18.27;11.37;;;20.50;99.90;;;;;;5028536;28;20246;-70
2023/09/13 10:12:09;;;;;;;21.37;11.63;;;20.60;99.90;;;;;;5029502;28;20626;-69
2023/09/13 10:14:44;;;;;;;21.40;12.00;;;20.60;99.90;;;;;;5019947;28;20236;-69
2023/09/13 10:17:10;;;;;;;21.17;11.93;;;20.60;99.90;;;;;;5003096;28;20199;-69
2023/09/13 10:19:36;;;;;;;21.03;12.00;;;20.60;99.90;;;;;;5009139;28;20184;-70
2023/09/13 10:22:02;;;;;;;21.23;11.23;;;20.50;99.90;;;;;;5021621;28;20203;-70
2023/09/13 10:24:39;;;;;;;18.03;11.87;;;20.50;99.90;;;;;;5013834;28;20212;-70
2023/09/13 10:27:09;;;;;;;18.57;11.27;;;20.40;99.90;;;;;;5002231;28;20282;-70
2023/09/13 10:29:40;;;;;;;21.57;12.27;;;20.30;99.90;;;;;;5010423;28;20275;-70
2023/09/13 10:32:13;;;;;;;17.87;12.03;;;20.30;99.90;;;;;;5013317;28;20271;-69
2023/09/13 10:34:48;;;;;;;22.27;13.00;;;20.30;99.90;;;;;;5021505;28;20223;-69
2023/09/13 10:37:28;;;;;;;19.37;12.07;;;20.40;99.90;;;;;;5018909;28;20530;-69
2023/09/13 10:40:10;;;;;;;18.17;12.07;;;20.40;99.90;;;;;;5014146;28;20267;-69
2023/09/13 10:42:40;;;;;;;24.93;13.27;;;20.40;99.90;;;;;;5013567;28;20183;-68
2023/09/13 10:45:07;;;;;;;21.53;12.07;;;20.40;99.90;;;;;;5005908;28;20297;-70
2023/09/13 10:47:35;;;;;;;22.77;12.30;;;20.20;99.90;;;;;;5020503;28;20395;-70
2023/09/13 10:50:02;;;;;;;23.23;12.20;;;20.30;99.90;;;;;;5012877;28;20215;-70
2023/09/13 10:52:29;;;;;;;19.90;12.20;;;20.30;99.90;;;;;;5013363;28;20214;-70
2023/09/13 10:54:58;;;;;;;19.47;11.30;;;20.40;99.90;;;;;;5013000;28;20205;-70
2023/09/13 10:57:25;;;;;;;16.83;11.10;;;20.50;99.90;;;;;;5019344;28;20560;-70
2023/09/13 10:59:51;;;;;;;20.40;10.20;;;20.60;99.90;;;;;;5024254;28;20219;-69
2023/09/13 11:02:17;;;;;;;18.07;10.40;;;20.70;99.90;;;;;;5024764;28;20279;-69
2023/09/13 11:04:44;;;;;;;16.07;10.57;;;20.80;99.90;;;;;;5015359;28;20240;-69
2023/09/13 11:07:13;;;;;;;14.60;9.80;;;20.90;99.90;;;;;;5017751;28;20211;-69
2023/09/13 11:09:39;;;;;;;20.70;10.47;;;20.90;99.90;;;;;;5023294;28;20192;-70
2023/09/13 11:12:05;;;;;;;16.57;10.10;;;21.10;99.90;;;;;;5011382;28;20274;-70
2023/09/13 11:14:31;;;;;;;18.57;9.97;;;21.20;99.90;;;;;;5011870;28;20383;-69
2023/09/13 11:17:09;;;;;;;19.20;10.30;;;21.30;99.90;;;;;;5028172;28;20637;-69
2023/09/13 11:19:35;;;;;;;18.67;9.53;;;21.40;99.90;;;;;;5020294;28;20180;-70
2023/09/13 11:22:02;;;;;;;16.90;10.13;;;21.40;99.90;;;;;;5029001;28;20231;-69
2023/09/13 11:24:40;;;;;;;17.60;9.60;;;21.40;99.90;;;;;;5012680;28;20291;-69
2023/09/13 11:27:14;;;;;;;18.23;9.97;;;21.40;99.90;;;;;;5008968;28;20659;-69
2023/09/13 11:29:42;;;;;;;16.27;9.43;;;21.50;99.90;;;;;;5022937;28;20677;-69
2023/09/13 11:32:18;;;;;;;14.40;9.33;;;21.50;99.90;;;;;;5020700;28;20216;-69
2023/09/13 11:34:45;;;;;;;13.13;8.83;;;21.70;99.90;;;;;;5020704;28;20618;-69
2023/09/13 11:37:11;;;;;;;15.80;9.90;;;21.90;99.90;;;;;;5020616;28;20671;-70
2023/09/13 11:39:38;;;;;;;12.57;9.57;;;21.80;99.90;;;;;;5019415;28;20188;-69
2023/09/13 11:42:09;;;;;;;16.57;10.10;;;21.90;99.90;;;;;;5019851;28;20195;-69
2023/09/13 11:44:36;;;;;;;17.47;10.33;;;21.90;99.90;;;;;;5019943;28;20223;-69
2023/09/13 11:47:02;;;;;;;14.80;9.90;;;21.80;99.90;;;;;;5015589;28;20196;-70
2023/09/13 11:49:28;;;;;;;18.70;10.77;;;21.90;99.90;;;;;;5016157;28;20215;-69
2023/09/13 11:51:57;;;;;;;19.80;10.77;;;21.90;99.90;;;;;;5028121;28;20257;-69
2023/09/13 11:54:25;;;;;;;26.23;12.00;;;21.80;99.90;;;;;;5017422;28;20560;-70
2023/09/13 11:56:56;;;;;;;20.17;11.43;;;21.80;99.90;;;;;;5011869;28;20663;-68
2023/09/13 11:59:30;;;;;;;17.33;11.10;;;21.80;99.90;;;;;;5019471;28;20548;-69
2023/09/13 12:01:57;;;;;;;16.83;12.27;;;21.90;99.90;;;;;;5022646;28;20193;-69
2023/09/13 12:04:26;;;;;;;16.17;11.60;;;21.80;99.90;;;;;;5023639;28;20204;-69
2023/09/13 12:06:56;;;;;;;18.53;11.87;;;21.80;99.90;;;;;;5029683;28;20683;-70
2023/09/13 12:09:22;;;;;;;22.67;11.80;;;21.80;99.90;;;;;;5011093;28;20184;-69
2023/09/13 12:11:51;;;;;;;15.80;11.07;;;21.90;99.90;;;;;;5011346;28;20284;-71
2023/09/13 12:14:21;;;;;;;19.23;13.13;;;22.00;99.90;;;;;;5025245;28;20208;-70
2023/09/13 12:16:50;;;;;;;16.10;10.93;;;22.10;99.90;;;;;;5013789;28;20190;-70
2023/09/13 12:19:16;;;;;;;22.27;13.23;;;22.20;99.90;;;;;;5011068;28;20177;-70
2023/09/13 12:21:46;;;;;;;16.07;10.77;;;22.30;99.90;;;;;;5011415;28;20288;-70
2023/09/13 12:24:18;;;;;;;15.07;10.50;;;22.30;99.90;;;;;;5016315;28;20250;-69
2023/09/13 12:26:44;;;;;;;19.87;10.10;;;22.50;99.90;;;;;;5030940;28;20215;-69
2023/09/13 12:29:10;;;;;;;14.07;10.73;;;22.40;99.90;;;;;;5026135;28;20216;-69